Time;durP1;ratioP1;P1;durP2;ratioP2;P2;SDS_P1;SDS_P2;PMS_P1;PMS_P2;Temp;Humidity;BMP_temperature;BMP_pressure;BME280_temperature;BME280_humidity;BME280_pressure;Samples;Min_cycle;Max_cycle;Signal;HPM_P1;HPM_P2
2021/12/09 00:01:27;;;;;;;3.80;3.43;;;;;;;17.72;45.61;95721.31;4977964;28;20204;-85
2021/12/09 00:03:58;;;;;;;4.30;3.90;;;;;;;13.32;45.02;94958.13;4961739;28;20207;-85
2021/12/09 00:06:29;;;;;;;3.70;3.40;;;;;;;11.67;45.22;94712.78;4975794;28;20705;-85
2021/12/09 00:08:58;;;;;;;4.37;3.97;;;;;;;13.53;45.42;95034.22;4976125;28;20207;-86
2021/12/09 00:11:25;;;;;;;4.50;4.00;;;;;;;17.82;45.39;95763.78;4991222;28;20210;-85
2021/12/09 00:13:52;;;;;;;4.60;4.10;;;;;;;18.13;45.31;95761.78;4975557;28;20219;-84
2021/12/09 00:16:20;;;;;;;4.20;3.80;;;;;;;15.62;45.30;95386.28;4990938;28;20223;-86
2021/12/09 00:18:50;;;;;;;4.33;3.93;;;;;;;15.18;45.77;95284.22;4954687;28;20224;-83
2021/12/09 00:21:20;;;;;;;4.60;4.20;;;;;;;16.91;45.08;95629.41;4974739;28;20226;-85
2021/12/09 00:23:46;;;;;;;4.63;4.20;;;;;;;13.66;45.22;95021.06;4960046;28;20203;-84
2021/12/09 00:26:16;;;;;;;4.50;4.10;;;;;;;18.50;45.61;95846.25;4977030;28;20247;-84
2021/12/09 00:28:43;;;;;;;5.00;4.33;;;;;;;12.37;45.30;94819.19;4990822;28;20211;-84
2021/12/09 00:31:17;;;;;;;4.30;3.90;;;;;;;18.23;45.33;95840.72;4975038;28;20199;-84
2021/12/09 00:33:46;;;;;;;4.90;4.40;;;;;;;15.03;45.62;95298.25;4963762;28;20204;-85
2021/12/09 00:36:16;;;;;;;4.30;3.90;;;;;;;16.38;45.74;95524.44;4963483;28;20547;-84
2021/12/09 00:38:43;;;;;;;4.43;4.03;;;;;;;15.28;45.44;95340.91;4957919;28;20234;-84
2021/12/09 00:41:14;;;;;;;4.40;4.00;;;;;;;15.66;45.52;95398.19;4951841;28;20235;-84
2021/12/09 00:43:44;;;;;;;4.30;3.90;;;;;;;18.12;45.29;95808.34;4959399;28;20259;-83
2021/12/09 00:46:11;;;;;;;4.43;4.03;;;;;;;18.06;45.42;95805.69;4991336;28;20219;-84
2021/12/09 00:48:37;;;;;;;4.80;4.00;;;;;;;16.28;45.19;95496.38;4959856;28;20661;-84
2021/12/09 00:51:05;;;;;;;4.23;3.83;;;;;;;15.15;45.44;95301.00;4944259;28;20200;-83
2021/12/09 00:53:32;;;;;;;4.37;3.97;;;;;;;13.47;45.50;95003.84;4943754;28;20208;-84
2021/12/09 00:55:59;;;;;;;4.37;3.97;;;;;;;15.66;45.27;95428.56;4959540;28;20188;-84
2021/12/09 00:58:28;;;;;;;4.40;4.00;;;;;;;13.10;44.98;94953.47;4958533;28;20223;-84
2021/12/09 01:00:55;;;;;;;4.77;4.27;;;;;;;14.33;45.33;95179.81;4974741;28;20211;-84
2021/12/09 01:03:22;;;;;;;4.40;4.00;;;;;;;15.00;45.06;95260.28;4991013;28;20215;-86
2021/12/09 01:05:49;;;;;;;4.70;4.20;;;;;;;17.62;45.38;95748.22;4958999;28;20199;-84
2021/12/09 01:08:36;;;;;;;4.53;4.10;;;;;;;17.90;45.48;95772.41;4988818;28;20278;-85
2021/12/09 01:11:04;;;;;;;4.50;4.10;;;;;;;18.16;45.49;95867.72;4990648;28;20617;-84
2021/12/09 01:13:31;;;;;;;4.20;3.80;;;;;;;14.84;45.21;95274.31;4975085;28;20677;-83
2021/12/09 01:15:57;;;;;;;4.30;3.90;;;;;;;12.44;45.47;94916.72;4959125;28;20210;-84
2021/12/09 01:18:24;;;;;;;4.27;3.87;;;;;;;15.94;45.34;95479.75;4941783;28;20215;-85
2021/12/09 01:20:51;;;;;;;4.37;3.97;;;;;;;18.13;45.40;95824.44;4967416;28;20199;-84
2021/12/09 01:23:18;;;;;;;4.30;3.90;;;;;;;13.82;45.24;95096.25;4973608;28;20243;-83
2021/12/09 01:25:45;;;;;;;4.97;4.47;;;;;;;14.66;45.56;95239.41;4975436;28;20595;-85
2021/12/09 01:28:19;;;;;;;4.40;4.00;;;;;;;12.72;45.48;94903.91;4958733;28;20282;-84
2021/12/09 01:30:50;;;;;;;4.43;4.03;;;;;;;14.79;45.11;95291.06;4988916;28;20669;-85
2021/12/09 01:33:23;;;;;;;4.50;4.10;;;;;;;14.61;45.40;95318.50;4959529;28;20320;-84
2021/12/09 01:35:49;;;;;;;4.13;3.83;;;;;;;17.23;45.44;95699.31;4989762;28;20641;-82
2021/12/09 01:38:27;;;;;;;4.23;3.83;;;;;;;16.18;45.59;95525.81;4959725;28;20696;-84
2021/12/09 01:40:55;;;;;;;4.33;3.93;;;;;;;13.82;45.36;95108.84;4974033;28;20192;-84
2021/12/09 01:43:22;;;;;;;4.50;4.10;;;;;;;18.13;45.77;95919.38;4974891;28;20669;-81
2021/12/09 01:45:49;;;;;;;4.50;4.10;;;;;;;16.64;45.34;95601.00;4958598;28;20207;-84
2021/12/09 01:48:16;;;;;;;4.40;3.93;;;;;;;17.23;45.66;95698.47;4974284;28;20235;-84
2021/12/09 01:50:42;;;;;;;4.03;3.63;;;;;;;16.33;45.65;95530.28;4990592;28;20218;-85
2021/12/09 01:53:10;;;;;;;3.87;3.57;;;;;;;17.01;45.20;95653.22;4974181;28;20200;-83
2021/12/09 01:55:36;;;;;;;4.40;4.00;;;;;;;16.71;45.49;95633.25;4957609;28;20200;-85
2021/12/09 01:58:03;;;;;;;4.47;4.07;;;;;;;16.16;45.36;95466.63;4986365;28;20700;-85
2021/12/09 02:00:31;;;;;;;4.50;4.10;;;;;;;17.62;45.42;95705.06;4969564;28;20219;-85
2021/12/09 02:03:02;;;;;;;4.47;4.07;;;;;;;17.56;45.43;95725.28;4969414;28;20227;-85
2021/12/09 02:05:28;;;;;;;4.47;4.07;;;;;;;18.42;45.74;95848.69;4953714;28;20542;-85
2021/12/09 02:07:55;;;;;;;4.37;3.97;;;;;;;18.37;45.34;95846.84;4956715;28;20287;-86
2021/12/09 02:10:24;;;;;;;4.63;4.23;;;;;;;16.78;45.23;95584.34;4945458;28;20215;-84
2021/12/09 02:12:51;;;;;;;4.50;4.10;;;;;;;16.23;45.68;95498.84;4947902;28;20258;-85
2021/12/09 02:15:24;;;;;;;4.50;3.90;;;;;;;18.57;45.75;95906.53;4994494;28;20203;-85
2021/12/09 02:17:51;;;;;;;4.30;3.90;;;;;;;16.34;45.34;95544.66;4949301;28;20215;-83
2021/12/09 02:20:18;;;;;;;4.77;4.00;;;;;;;12.21;45.16;94834.78;4962580;28;20203;-85
2021/12/09 02:22:48;;;;;;;4.50;4.10;;;;;;;13.35;45.81;95080.94;4963198;28;20211;-84
2021/12/09 02:25:15;;;;;;;4.20;3.80;;;;;;;13.26;45.41;95017.69;4950740;28;20199;-83
2021/12/09 02:27:42;;;;;;;4.03;3.73;;;;;;;16.21;45.83;95541.06;4978009;28;20223;-84
2021/12/09 02:30:09;;;;;;;4.80;4.00;;;;;;;16.10;45.59;95508.72;4962869;28;20203;-85
2021/12/09 02:32:42;;;;;;;4.60;4.20;;;;;;;17.54;45.59;95805.69;4979068;28;20203;-85
2021/12/09 02:35:09;;;;;;;4.57;4.17;;;;;;;14.53;45.39;95232.41;4994822;28;20204;-85
2021/12/09 02:37:36;;;;;;;4.40;4.00;;;;;;;17.79;45.41;95820.50;4994248;28;20219;-84
2021/12/09 02:40:04;;;;;;;4.47;4.07;;;;;;;16.39;45.49;95568.41;4978289;28;20230;-85
2021/12/09 02:42:32;;;;;;;4.97;4.43;;;;;;;16.84;45.66;95655.47;4978375;28;20367;-84
2021/12/09 02:45:01;;;;;;;4.83;4.17;;;;;;;16.83;46.13;95612.31;4994443;28;20282;-84
2021/12/09 02:47:27;;;;;;;4.27;3.87;;;;;;;16.78;45.61;95626.63;4977619;28;20282;-84
2021/12/09 02:49:57;;;;;;;4.17;3.80;;;;;;;18.95;45.57;95995.34;4962981;28;20215;-85
2021/12/09 02:52:26;;;;;;;5.23;4.63;;;;;;;18.16;45.71;95866.03;4945794;28;20195;-86
2021/12/09 02:54:57;;;;;;;4.47;4.07;;;;;;;17.10;45.88;95674.56;4978558;28;20562;-84
2021/12/09 02:57:24;;;;;;;4.37;3.97;;;;;;;13.37;45.11;95054.06;4978149;28;20396;-84
2021/12/09 02:59:51;;;;;;;5.67;4.37;;;;;;;12.25;45.39;94939.75;4978336;28;20239;-85
2021/12/09 03:02:19;;;;;;;4.20;3.90;;;;;;;15.17;45.33;95390.44;4994297;28;20207;-84
2021/12/09 03:04:51;;;;;;;4.33;3.93;;;;;;;16.59;45.32;95622.91;4977290;28;20203;-84
2021/12/09 03:07:33;;;;;;;4.43;4.03;;;;;;;18.10;45.48;95893.03;4978044;28;20277;-83
2021/12/09 03:10:09;;;;;;;4.53;4.13;;;;;;;16.20;45.47;95566.38;4962151;28;20204;-84
2021/12/09 03:12:41;;;;;;;5.00;4.50;;;;;;;18.06;45.46;95874.31;4962135;28;20199;-84
2021/12/09 03:15:12;;;;;;;4.23;3.93;;;;;;;18.20;45.30;95866.91;4977332;28;20211;-85
2021/12/09 03:17:43;;;;;;;4.53;4.13;;;;;;;18.79;45.65;95965.41;4978993;28;20587;-85
2021/12/09 03:20:11;;;;;;;4.60;4.20;;;;;;;19.17;45.59;96017.75;4962306;28;20685;-86
2021/12/09 03:22:38;;;;;;;4.73;4.33;;;;;;;18.66;45.66;95955.00;4957339;28;20463;-85
2021/12/09 03:25:05;;;;;;;4.50;4.10;;;;;;;16.02;45.51;95525.50;4975910;28;20282;-86
2021/12/09 03:27:32;;;;;;;4.77;4.37;;;;;;;14.81;45.51;95281.84;4962052;28;20248;-86
2021/12/09 03:29:59;;;;;;;4.53;4.13;;;;;;;15.47;45.55;95474.59;4962457;28;20204;-85
2021/12/09 03:32:26;;;;;;;4.43;4.03;;;;;;;18.13;45.73;95848.19;4994103;28;20207;-84
2021/12/09 03:34:52;;;;;;;4.73;4.33;;;;;;;12.38;45.62;94909.84;4977287;28;20204;-85
2021/12/09 03:37:21;;;;;;;4.53;4.13;;;;;;;11.96;45.52;94822.47;4960833;28;20211;-85
2021/12/09 03:39:48;;;;;;;4.93;4.50;;;;;;;13.43;45.70;95094.53;4993155;28;20246;-85
2021/12/09 03:42:16;;;;;;;4.60;4.07;;;;;;;15.84;45.30;95542.88;4993195;28;20231;-85
2021/12/09 03:44:43;;;;;;;4.40;4.00;;;;;;;15.20;45.58;95420.84;4944838;28;20673;-84
2021/12/09 03:47:11;;;;;;;4.43;4.03;;;;;;;18.09;45.59;95906.59;4977182;28;20223;-81
2021/12/09 03:49:41;;;;;;;4.00;3.70;;;;;;;18.08;45.71;95874.34;4961212;28;20240;-86
2021/12/09 03:52:09;;;;;;;4.20;3.80;;;;;;;16.36;45.67;95601.31;4977386;28;20203;-86
2021/12/09 03:54:35;;;;;;;4.47;4.00;;;;;;;16.02;45.64;95528.03;4951255;28;20624;-85
2021/12/09 03:57:03;;;;;;;4.77;4.27;;;;;;;17.98;45.74;95860.66;4961103;28;20220;-86
2021/12/09 03:59:29;;;;;;;4.53;4.13;;;;;;;13.43;45.42;95105.50;4961147;28;20200;-84
2021/12/09 04:01:56;;;;;;;4.60;4.20;;;;;;;15.93;45.53;95560.78;4979434;28;20748;-86
2021/12/09 04:04:25;;;;;;;5.20;4.70;;;;;;;18.10;45.25;95961.66;4972906;28;20219;-85
2021/12/09 04:06:51;;;;;;;4.37;3.97;;;;;;;14.91;45.57;95372.22;4960581;28;20234;-84
2021/12/09 04:09:19;;;;;;;4.40;4.03;;;;;;;12.74;45.77;95033.28;4945623;28;20207;-84
2021/12/09 04:11:46;;;;;;;4.30;3.90;;;;;;;16.77;45.59;95679.03;4961309;28;20200;-84
2021/12/09 04:14:12;;;;;;;4.50;4.10;;;;;;;19.07;45.48;96065.97;4960148;28;20220;-85
2021/12/09 04:16:41;;;;;;;4.60;4.20;;;;;;;18.02;45.82;95887.81;4977432;28;20263;-84
2021/12/09 04:19:10;;;;;;;4.03;3.73;;;;;;;15.59;45.67;95506.06;4976596;28;20208;-86
2021/12/09 04:21:37;;;;;;;4.60;4.20;;;;;;;11.44;45.70;94834.56;4993320;28;20211;-84
2021/12/09 04:24:07;;;;;;;4.40;4.00;;;;;;;17.03;45.68;95763.22;4976107;28;20214;-83
2021/12/09 04:26:44;;;;;;;4.67;4.27;;;;;;;14.93;45.40;95398.38;4976349;28;20231;-84
2021/12/09 04:29:11;;;;;;;4.30;3.90;;;;;;;16.58;45.50;95682.03;4955465;28;20255;-85
2021/12/09 04:31:39;;;;;;;4.53;4.13;;;;;;;13.69;45.23;95179.22;4958812;28;20195;-85
2021/12/09 04:34:06;;;;;;;4.40;4.00;;;;;;;18.07;45.86;95891.31;4991475;28;20223;-83
2021/12/09 04:36:33;;;;;;;4.20;3.80;;;;;;;15.52;45.64;95528.69;4975803;28;20200;-85
2021/12/09 04:39:00;;;;;;;4.30;3.90;;;;;;;14.98;45.89;95466.75;4975864;28;20697;-85
2021/12/09 04:41:27;;;;;;;4.50;4.10;;;;;;;11.11;45.59;94752.47;4963237;28;20208;-86
2021/12/09 04:43:54;;;;;;;4.23;3.83;;;;;;;14.78;45.56;95398.06;4960399;28;20297;-85
2021/12/09 04:46:20;;;;;;;4.23;3.83;;;;;;;19.33;45.63;96138.59;4977024;28;20214;-86
2021/12/09 04:48:47;;;;;;;4.53;4.13;;;;;;;17.57;45.84;95942.03;5033454;23;20233;-88
2021/12/09 04:51:14;;;;;;;4.30;3.90;;;;;;;17.14;45.65;95746.53;4972500;28;20285;-83
2021/12/09 04:53:41;;;;;;;4.23;3.83;;;;;;;14.91;45.60;95386.53;4990477;28;20198;-86
2021/12/09 04:56:24;;;;;;;5.30;4.17;;;;;;;10.91;45.97;94746.09;4973234;28;20757;-85
2021/12/09 04:58:54;;;;;;;3.90;3.60;;;;;;;8.86;45.50;94442.84;4981264;28;20229;-84
2021/12/09 05:01:24;;;;;;;4.87;4.40;;;;;;;14.67;45.70;95414.66;4976742;28;20644;-86
2021/12/09 05:03:52;;;;;;;5.27;4.17;;;;;;;14.88;45.46;95397.44;4975978;28;20672;-85
2021/12/09 05:06:31;;;;;;;4.60;4.20;;;;;;;10.76;45.77;94770.81;4990091;28;20206;-85
2021/12/09 05:09:05;;;;;;;4.23;3.83;;;;;;;14.15;45.55;95310.72;4995160;28;20576;-84
2021/12/09 05:14:06;;;;;;;4.67;4.27;;;;;;;10.42;45.31;94692.91;4985935;28;20211;-85
2021/12/09 05:16:43;;;;;;;4.30;3.90;;;;;;;10.85;45.82;94753.47;4978498;28;20201;-85
2021/12/09 05:19:15;;;;;;;4.30;3.90;;;;;;;10.37;45.70;94696.09;4991157;28;20321;-86
2021/12/09 05:21:45;;;;;;;4.47;4.07;;;;;;;14.15;45.35;95270.31;4988798;28;20205;-87
2021/12/09 05:24:20;;;;;;;4.27;3.87;;;;;;;14.09;45.70;95262.56;4983850;28;20297;-86
2021/12/09 05:26:54;;;;;;;4.50;4.10;;;;;;;13.96;45.34;95293.41;4981677;28;20198;-85
2021/12/09 05:29:28;;;;;;;4.97;4.47;;;;;;;13.63;45.48;95158.91;4990277;28;20207;-87
2021/12/09 05:35:08;;;;;;;4.70;4.30;;;;;;;11.90;45.60;94893.59;5010066;28;20209;-86
2021/12/09 05:37:57;;;;;;;4.90;4.50;;;;;;;12.43;45.53;94968.72;4963058;28;20324;-86
2021/12/09 05:40:31;;;;;;;5.00;4.50;;;;;;;14.87;45.39;95549.09;4973361;28;20217;-87
2021/12/09 05:43:04;;;;;;;4.70;4.30;;;;;;;14.96;45.41;95509.72;4978058;28;20202;-86
2021/12/09 05:45:37;;;;;;;4.37;3.97;;;;;;;10.81;45.65;94779.31;4979227;28;20206;-88
2021/12/09 05:48:09;;;;;;;4.60;4.20;;;;;;;19.06;45.37;96143.16;4980182;28;20233;-88
2021/12/09 05:50:37;;;;;;;5.77;4.00;;;;;;;14.08;45.45;95271.84;4994891;28;20209;-87
2021/12/09 05:53:15;;;;;;;4.53;4.13;;;;;;;14.21;45.44;95336.09;4978774;28;20198;-88
2021/12/09 05:55:43;;;;;;;4.90;4.37;;;;;;;11.86;45.49;94933.75;4978268;28;20651;-86
2021/12/09 05:58:12;;;;;;;5.30;4.47;;;;;;;16.71;45.47;95785.44;4978703;28;20244;-87
2021/12/09 06:00:39;;;;;;;4.50;4.10;;;;;;;15.06;45.53;95440.81;4978447;28;20210;-87
2021/12/09 06:03:06;;;;;;;4.93;4.37;;;;;;;15.39;45.40;95578.19;4978245;28;20561;-87
2021/12/09 06:05:33;;;;;;;4.40;4.00;;;;;;;12.23;45.37;94990.06;4993968;28;20209;-87
2021/12/09 06:08:00;;;;;;;4.70;4.30;;;;;;;16.40;45.73;95727.25;4993873;28;20226;-87
2021/12/09 06:10:30;;;;;;;5.10;4.60;;;;;;;14.25;45.50;95417.06;4978353;28;20655;-87
2021/12/09 06:12:58;;;;;;;5.37;4.03;;;;;;;12.97;45.60;95115.31;5010091;28;20671;-87
2021/12/09 06:15:24;;;;;;;4.93;4.43;;;;;;;10.00;45.59;94621.47;4978362;28;20290;-88
2021/12/09 06:17:51;;;;;;;4.90;4.50;;;;;;;10.58;45.46;94725.13;4990325;28;20223;-87
2021/12/09 06:20:18;;;;;;;5.00;4.50;;;;;;;13.10;45.24;95227.41;4972893;28;20237;-87
2021/12/09 06:22:45;;;;;;;4.70;4.30;;;;;;;14.61;45.90;95531.66;4977929;28;20210;-88
2021/12/09 06:25:17;;;;;;;5.20;4.70;;;;;;;16.64;45.38;95786.09;4995993;28;20203;-87
2021/12/09 06:27:48;;;;;;;4.63;4.23;;;;;;;16.62;45.30;95792.00;4988783;28;20240;-87
2021/12/09 06:30:18;;;;;;;4.70;4.20;;;;;;;17.98;45.31;96071.59;4977760;28;20202;-85
2021/12/09 06:32:45;;;;;;;4.73;4.33;;;;;;;14.91;45.39;95497.78;4978263;28;20246;-87
2021/12/09 06:35:12;;;;;;;4.43;4.03;;;;;;;18.29;45.37;96050.16;4977406;28;20261;-87
2021/12/09 06:37:44;;;;;;;5.30;4.80;;;;;;;16.62;45.19;95808.06;4993953;28;20218;-87
2021/12/09 06:40:17;;;;;;;4.37;3.97;;;;;;;19.18;45.25;96238.44;4978246;28;20234;-87
2021/12/09 06:42:44;;;;;;;4.80;4.30;;;;;;;17.60;45.26;95983.59;4996514;28;20203;-88
2021/12/09 06:45:11;;;;;;;4.27;3.87;;;;;;;14.10;45.83;95350.97;4997595;28;20217;-87
2021/12/09 06:47:38;;;;;;;4.70;4.30;;;;;;;17.32;45.31;95866.16;4980705;28;20230;-87
2021/12/09 06:50:06;;;;;;;4.70;4.30;;;;;;;16.93;45.21;95801.94;4980032;28;20234;-86
2021/12/09 06:52:32;;;;;;;5.30;4.80;;;;;;;18.69;45.18;96118.78;4996476;28;20676;-89
2021/12/09 06:55:04;;;;;;;6.33;5.83;;;;;;;14.85;44.55;95540.63;4980565;28;20748;-86
2021/12/09 06:57:30;;;;;;;10.53;9.53;;;;;;;16.50;44.84;95792.59;4982324;28;20229;-87
2021/12/09 06:59:58;;;;;;;14.83;13.33;;;;;;;13.71;42.68;95309.66;4979413;28;20218;-87
2021/12/09 07:02:25;;;;;;;15.37;13.60;;;;;;;11.44;42.17;94860.56;4967492;28;20256;-87
2021/12/09 07:04:52;;;;;;;14.30;12.80;;;;;;;16.58;42.45;95787.69;4996592;28;20234;-87
2021/12/09 07:07:18;;;;;;;13.93;12.53;;;;;;;15.86;42.73;95650.09;4980844;28;20264;-87
2021/12/09 07:09:45;;;;;;;16.03;12.60;;;;;;;18.69;43.08;96095.00;4996627;28;20607;-86
2021/12/09 07:12:11;;;;;;;14.30;12.70;;;;;;;18.49;42.65;96116.66;4978023;28;20289;-87
2021/12/09 07:14:39;;;;;;;15.00;12.70;;;;;;;16.20;42.55;95726.00;4970953;28;20233;-87
2021/12/09 07:17:06;;;;;;;13.47;12.07;;;;;;;18.61;42.63;96066.88;4978093;28;20285;-87
2021/12/09 07:19:32;;;;;;;13.53;12.10;;;;;;;17.03;42.83;95814.84;4996814;28;20640;-87
2021/12/09 07:21:59;;;;;;;12.50;11.30;;;;;;;11.71;42.64;94905.69;4996772;28;20233;-87
2021/12/09 07:24:25;;;;;;;13.13;11.83;;;;;;;19.50;43.67;96244.16;4980671;28;20660;-86
2021/12/09 07:26:52;;;;;;;20.33;17.63;;;;;;;18.38;40.79;96059.69;4996858;28;20202;-88
2021/12/09 07:29:19;;;;;;;20.43;18.23;;;;;;;16.77;40.16;95770.34;4981418;28;20264;-87
2021/12/09 07:31:46;;;;;;;19.47;17.47;;;;;;;18.63;40.15;96099.97;4997270;28;20657;-88
2021/12/09 07:34:13;;;;;;;19.23;17.23;;;;;;;18.46;40.94;96078.47;4997281;28;20628;-89
2021/12/09 07:36:39;;;;;;;18.47;16.57;;;;;;;18.07;41.18;96060.75;4997678;28;20293;-88
2021/12/09 07:39:06;;;;;;;18.43;16.23;;;;;;;19.05;41.52;96169.47;4981219;28;20245;-88
2021/12/09 07:41:32;;;;;;;16.37;14.67;;;;;;;19.45;41.24;96274.63;5014012;28;20260;-87
2021/12/09 07:44:02;;;;;;;15.83;14.17;;;;;;;17.77;41.61;96063.50;4980551;28;20241;-87
2021/12/09 07:46:29;;;;;;;15.83;14.13;;;;;;;18.31;41.56;96081.56;4996352;28;20285;-86
2021/12/09 07:48:56;;;;;;;15.20;13.60;;;;;;;19.14;42.09;96254.53;4991090;28;20647;-88
2021/12/09 07:51:22;;;;;;;14.73;13.33;;;;;;;19.13;42.02;96194.22;4980227;28;20198;-86
2021/12/09 07:53:49;;;;;;;16.00;13.40;;;;;;;18.52;42.08;96094.69;4989497;28;20241;-87
2021/12/09 07:56:16;;;;;;;14.70;13.00;;;;;;;17.21;42.25;95905.72;4983312;28;20251;-86
2021/12/09 07:58:42;;;;;;;14.67;13.17;;;;;;;18.62;42.23;96122.00;4977216;28;20303;-85
2021/12/09 08:01:09;;;;;;;13.47;12.17;;;;;;;16.54;42.48;95766.47;4995809;28;20233;-88
2021/12/09 08:03:36;;;;;;;13.77;12.37;;;;;;;16.70;42.41;95825.97;4979466;28;20213;-86
2021/12/09 08:06:03;;;;;;;13.57;12.17;;;;;;;16.73;42.72;95796.47;4980653;28;20198;-86
2021/12/09 08:08:30;;;;;;;14.10;12.37;;;;;;;17.51;42.82;95919.03;4994216;28;20297;-85
2021/12/09 08:10:56;;;;;;;12.50;11.20;;;;;;;16.64;42.77;95775.97;4978698;28;20226;-86
2021/12/09 08:13:23;;;;;;;13.67;10.93;;;;;;;19.50;42.75;96260.28;4993946;28;20206;-85
2021/12/09 08:15:53;;;;;;;11.87;10.67;;;;;;;18.97;42.70;96192.22;5000099;28;20209;-85
2021/12/09 08:20:49;;;;;;;11.83;10.43;;;;;;;17.73;43.06;95962.66;4996075;28;20285;-88
2021/12/09 08:23:16;;;;;;;10.47;9.37;;;;;;;18.05;42.96;96050.56;4996697;28;20218;-86
2021/12/09 08:25:43;;;;;;;10.33;9.33;;;;;;;17.92;43.10;95999.44;4979031;28;20239;-87
2021/12/09 08:28:10;;;;;;;12.03;10.07;;;;;;;19.24;42.89;96218.19;4978747;28;20226;-86
2021/12/09 08:30:38;;;;;;;10.27;9.27;;;;;;;18.94;43.13;96176.91;4975610;28;20219;-86
2021/12/09 08:33:22;;;;;;;10.43;9.43;;;;;;;15.03;43.10;95500.56;4977735;28;20277;-86
2021/12/09 08:35:48;;;;;;;10.63;9.53;;;;;;;17.64;43.19;95969.25;4987581;28;20319;-87
2021/12/09 08:38:15;;;;;;;9.90;8.97;;;;;;;16.91;43.31;95900.00;4985392;28;20579;-88
2021/12/09 08:40:43;;;;;;;9.73;8.83;;;;;;;18.73;43.18;96212.13;4960617;28;20235;-85
2021/12/09 08:43:10;;;;;;;8.87;7.97;;;;;;;18.00;43.43;96030.97;4969074;28;20229;-86
2021/12/09 08:45:36;;;;;;;8.83;7.73;;;;;;;18.40;42.75;96182.63;4976325;28;20225;-86
2021/12/09 08:48:04;;;;;;;8.60;7.80;;;;;;;18.99;43.35;96217.72;4979728;28;20686;-85
2021/12/09 08:50:33;;;;;;;8.90;8.00;;;;;;;14.93;43.35;95517.25;4964280;28;20261;-86
2021/12/09 08:53:04;;;;;;;9.03;8.10;;;;;;;19.49;43.47;96299.34;4982091;28;20556;-84
2021/12/09 08:55:31;;;;;;;9.33;7.70;;;;;;;17.73;43.41;96013.47;4970682;28;20283;-86
2021/12/09 08:57:57;;;;;;;8.07;7.27;;;;;;;15.58;43.21;95632.59;4974108;28;20233;-86
2021/12/09 09:00:26;;;;;;;8.53;7.07;;;;;;;18.76;43.57;96157.88;4976646;28;20238;-85
2021/12/09 09:02:56;;;;;;;8.10;7.30;;;;;;;15.40;43.25;95606.88;4991182;28;20199;-84
2021/12/09 09:05:23;;;;;;;8.10;7.13;;;;;;;18.14;43.45;96093.06;5008328;28;20194;-85
2021/12/09 09:07:50;;;;;;;7.73;6.83;;;;;;;19.01;43.59;96219.44;4990872;28;20246;-85
2021/12/09 09:10:19;;;;;;;7.97;7.17;;;;;;;17.38;43.46;95945.81;4984936;28;20223;-86
2021/12/09 09:12:46;;;;;;;7.23;6.53;;;;;;;19.32;43.58;96289.69;4989963;28;20222;-86
2021/12/09 09:15:14;;;;;;;7.83;6.93;;;;;;;18.82;43.59;96226.72;5011337;28;20245;-85
2021/12/09 09:17:41;;;;;;;6.97;6.07;;;;;;;15.92;43.57;95794.59;4989116;28;20233;-85
2021/12/09 09:20:09;;;;;;;6.77;6.07;;;;;;;18.20;43.50;96106.78;4980524;28;20236;-86
2021/12/09 09:22:36;;;;;;;6.20;5.70;;;;;;;12.81;43.76;95207.31;4979404;28;20206;-85
2021/12/09 09:25:04;;;;;;;6.40;5.80;;;;;;;11.75;43.76;95019.00;4979281;28;20233;-86
2021/12/09 09:27:31;;;;;;;6.53;5.93;;;;;;;11.51;43.84;94975.53;5001489;28;20244;-87
2021/12/09 09:29:58;;;;;;;7.97;7.23;;;;;;;18.87;43.71;96231.09;4980247;28;20250;-87
2021/12/09 09:32:24;;;;;;;10.90;9.00;;;;;;;18.61;41.21;96194.09;4995611;28;20234;-86
2021/12/09 09:34:53;;;;;;;9.17;8.33;;;;;;;18.70;39.78;96212.09;4978656;28;20289;-86
2021/12/09 09:37:21;;;;;;;9.70;8.50;;;;;;;14.95;40.51;95586.38;4979688;28;20321;-87
2021/12/09 09:39:48;;;;;;;9.93;8.50;;;;;;;15.74;40.98;95754.50;4994664;28;20230;-86
2021/12/09 09:44:47;;;;;;;8.60;7.73;;;;;;;18.02;41.48;96197.91;5010861;28;20292;-86
2021/12/09 09:47:16;;;;;;;9.87;8.10;;;;;;;18.53;41.99;96215.97;4980666;28;20226;-85
2021/12/09 09:49:43;;;;;;;8.33;7.53;;;;;;;19.10;42.10;96341.84;4978826;28;20214;-86
2021/12/09 09:52:10;;;;;;;7.67;6.97;;;;;;;15.17;42.16;95648.47;4994743;28;20245;-86
2021/12/09 09:54:37;;;;;;;7.73;7.03;;;;;;;16.81;42.57;95910.78;4994668;28;20198;-86
2021/12/09 09:57:05;;;;;;;7.17;6.50;;;;;;;18.33;42.51;96213.81;4994996;28;20198;-86
2021/12/09 09:59:31;;;;;;;7.63;6.50;;;;;;;17.73;42.81;96168.44;4977445;28;20199;-86
2021/12/09 10:01:58;;;;;;;7.50;6.80;;;;;;;14.71;42.75;95567.25;4974431;28;20533;-86
2021/12/09 10:04:44;;;;;;;6.03;5.53;;;;;;;14.08;42.86;95510.84;4958068;28;20206;-86
2021/12/09 10:07:12;;;;;;;6.00;5.50;;;;;;;15.37;43.17;95665.84;4977237;28;20206;-86
2021/12/09 10:09:39;;;;;;;6.43;5.93;;;;;;;17.84;43.38;96095.88;4958145;28;20302;-87
2021/12/09 10:12:06;;;;;;;6.23;5.63;;;;;;;16.65;43.18;95889.28;4958581;28;20199;-85
2021/12/09 10:14:33;;;;;;;5.80;5.30;;;;;;;19.10;43.34;96305.34;4974163;28;20237;-88
2021/12/09 10:17:13;;;;;;;6.40;5.80;;;;;;;19.37;43.24;96346.66;4958464;28;20294;-86
2021/12/09 10:19:56;;;;;;;5.60;5.10;;;;;;;17.68;43.52;96073.47;4990433;28;20226;-86
2021/12/09 10:22:25;;;;;;;5.93;5.30;;;;;;;18.76;43.53;96249.50;4958897;28;20438;-86
2021/12/09 10:24:53;;;;;;;6.13;5.53;;;;;;;19.12;43.26;96327.47;4974404;28;20230;-87
2021/12/09 10:27:28;;;;;;;6.03;5.03;;;;;;;18.79;43.61;96290.28;4990056;28;20238;-86
2021/12/09 10:30:18;;;;;;;5.40;5.00;;;;;;;17.79;43.47;96084.75;4975353;28;20254;-87
2021/12/09 10:32:45;;;;;;;5.47;4.97;;;;;;;19.04;43.42;96326.44;4978162;28;20237;-86
2021/12/09 10:35:16;;;;;;;5.47;4.97;;;;;;;18.18;43.53;96145.72;4962296;28;20230;-86
2021/12/09 10:37:44;;;;;;;5.47;4.97;;;;;;;19.02;43.60;96325.56;4978019;28;20329;-85
2021/12/09 10:40:20;;;;;;;5.73;5.23;;;;;;;19.33;43.81;96357.63;4963909;28;20207;-86
2021/12/09 10:42:51;;;;;;;10.07;9.00;;;;;;;17.19;41.88;95991.97;4963044;28;20629;-86
2021/12/09 10:45:20;;;;;;;11.10;9.80;;;;;;;11.60;41.07;95043.69;4979198;28;20207;-85
2021/12/09 10:53:07;;;;;;;8.40;7.60;;;;;;;18.62;42.14;96241.59;4994328;28;20210;-85
2021/12/09 10:55:35;;;;;;;9.03;8.13;;;;;;;18.79;42.36;96262.28;4965112;28;20199;-86
2021/12/09 10:58:12;;;;;;;8.53;7.57;;;;;;;18.60;42.70;96245.81;4961933;28;20265;-85
2021/12/09 11:00:53;;;;;;;9.37;7.57;;;;;;;18.83;42.95;96294.63;4966275;28;20222;-86
2021/12/09 11:03:26;;;;;;;8.20;7.30;;;;;;;19.00;42.92;96316.16;4983644;28;20238;-85
2021/12/09 11:06:03;;;;;;;7.10;6.40;;;;;;;19.28;43.09;96366.88;5014273;28;20222;-85
2021/12/09 11:08:31;;;;;;;6.90;6.20;;;;;;;19.27;43.07;96355.81;5013916;28;20300;-84
2021/12/09 11:11:06;;;;;;;8.67;6.70;;;;;;;18.93;43.34;96296.53;5014130;28;20257;-86
2021/12/09 11:13:39;;;;;;;6.57;5.87;;;;;;;19.27;43.33;96350.72;4997138;28;20552;-85
2021/12/09 11:16:06;;;;;;;6.30;5.70;;;;;;;18.94;43.56;96285.50;5014040;28;20210;-82
2021/12/09 11:18:38;;;;;;;6.23;5.63;;;;;;;19.02;43.61;96297.56;4981704;28;20688;-83
2021/12/09 11:21:17;;;;;;;6.23;5.57;;;;;;;18.82;43.83;96264.91;5013945;28;20225;-85
2021/12/09 11:23:46;;;;;;;6.00;5.47;;;;;;;17.78;43.79;96085.56;4999438;28;20256;-85
2021/12/09 11:26:23;;;;;;;6.77;5.67;;;;;;;19.18;43.73;96316.53;5014782;28;20238;-84
2021/12/09 11:29:08;;;;;;;6.53;5.80;;;;;;;19.30;43.83;96343.13;4998410;28;20325;-85
2021/12/09 11:31:43;;;;;;;5.67;5.17;;;;;;;18.87;43.78;96258.22;4999035;28;20241;-85
2021/12/09 11:49:56;;;;;;;7.20;4.87;;;;;;;19.28;43.97;96338.84;5006937;28;20216;-80
2021/12/09 11:52:24;;;;;;;5.27;4.77;;;;;;;18.88;43.79;96272.66;5006213;28;20210;-86
2021/12/09 11:54:59;;;;;;;5.40;4.33;;;;;;;18.94;44.01;96291.47;4977049;28;20245;-85
2021/12/09 11:57:37;;;;;;;4.90;4.10;;;;;;;17.69;43.92;96076.88;4990008;28;20202;-85
2021/12/09 12:12:29;;;;;;;4.17;3.77;;;;;;;19.28;44.33;96349.91;5001547;28;20205;-84
2021/12/09 12:15:12;;;;;;;4.57;3.83;;;;;;;18.72;44.46;96245.19;5002943;28;20218;-84
2021/12/09 12:18:29;;;;;;;5.20;3.83;;;;;;;19.28;44.31;96352.47;4963417;28;20203;-84
2021/12/09 12:24:32;;;;;;;4.50;3.80;;;;;;;18.73;44.56;96252.84;5018478;28;20218;-85
2021/12/09 12:40:26;;;;;;;4.13;3.73;;;;;;;19.31;44.35;96356.75;4996155;28;20187;-85
2021/12/09 12:43:02;;;;;;;4.43;3.23;;;;;;;18.84;44.56;96273.44;5007044;28;20221;-85